createdAt,value
2023-01-12T00:01:15.935Z,100.00
2023-01-12T00:04:18.032Z,100.00
2023-01-12T00:07:22.626Z,100.00
2023-01-12T00:10:24.587Z,100.00
2023-01-12T00:13:31.630Z,100.00
2023-01-12T00:16:33.928Z,100.00
2023-01-12T00:19:35.770Z,100.00
2023-01-12T00:22:37.521Z,100.00
2023-01-12T00:25:39.715Z,100.00
2023-01-12T00:28:43.118Z,100.00
2023-01-12T00:31:47.992Z,100.00
2023-01-12T00:34:49.899Z,100.00
2023-01-12T00:37:51.938Z,100.00
2023-01-12T00:40:53.912Z,100.00
2023-01-12T00:43:57.053Z,100.00
2023-01-12T00:47:00.529Z,100.00
2023-01-12T00:50:02.435Z,100.00
2023-01-12T00:53:05.990Z,100.00
2023-01-12T00:56:08.038Z,100.00
2023-01-12T00:59:11.176Z,100.00
2023-01-12T01:02:13.810Z,100.00
2023-01-12T01:05:15.804Z,100.00
2023-01-12T01:08:17.837Z,100.00
2023-01-12T01:11:19.617Z,100.00
2023-01-12T01:14:25.834Z,100.00
2023-01-12T01:17:27.776Z,100.00
2023-01-12T01:20:29.827Z,100.00
2023-01-12T01:23:34.596Z,100.00
2023-01-12T01:26:39.179Z,100.00
2023-01-12T01:29:42.622Z,100.00
2023-01-12T01:32:44.885Z,100.00
2023-01-12T01:35:46.660Z,100.00
2023-01-12T01:38:50.090Z,100.00
2023-01-12T01:41:52.185Z,100.00
2023-01-12T01:44:57.430Z,100.00
2023-01-12T01:48:02.906Z,100.00
2023-01-12T01:51:11.159Z,100.00
2023-01-12T01:54:15.256Z,100.00
2023-01-12T01:57:17.508Z,100.00
2023-01-12T02:00:22.472Z,100.00
2023-01-12T02:03:26.253Z,100.00
2023-01-12T02:06:29.246Z,100.00
2023-01-12T02:09:32.764Z,100.00
2023-01-12T02:12:34.580Z,100.00
2023-01-12T02:15:52.929Z,100.00
2023-01-12T02:19:15.626Z,100.00
2023-01-12T02:22:50.217Z,100.00
2023-01-12T02:26:24.809Z,100.00
2023-01-12T02:29:55.868Z,100.00
2023-01-12T02:33:20.193Z,100.00
2023-01-12T02:36:29.719Z,100.00
2023-01-12T02:39:39.163Z,100.00
2023-01-12T02:42:44.856Z,100.00
2023-01-12T02:45:54.327Z,100.00
2023-01-12T02:49:03.171Z,100.00
2023-01-12T02:52:13.010Z,100.00
2023-01-12T02:55:16.211Z,100.00
2023-01-12T02:58:21.419Z,100.00
2023-01-12T03:01:25.590Z,100.00
2023-01-12T03:04:32.808Z,100.00
2023-01-12T03:07:41.461Z,100.00
2023-01-12T03:11:00.446Z,100.00
2023-01-12T03:14:03.916Z,100.00
2023-01-12T03:17:18.266Z,100.00
2023-01-12T03:20:25.702Z,100.00
2023-01-12T03:23:34.404Z,100.00
2023-01-12T03:26:41.579Z,100.00
2023-01-12T03:29:46.292Z,100.00
2023-01-12T03:32:48.638Z,100.00
2023-01-12T03:36:06.120Z,100.00
2023-01-12T03:39:15.976Z,100.00
2023-01-12T03:42:26.604Z,100.00
2023-01-12T03:45:35.309Z,100.00
2023-01-12T03:48:42.692Z,100.00
2023-01-12T03:51:50.486Z,100.00
2023-01-12T03:54:55.328Z,100.00
2023-01-12T03:57:59.604Z,100.00
2023-01-12T04:01:02.092Z,100.00
2023-01-12T04:04:04.095Z,100.00
2023-01-12T04:07:12.462Z,100.00
2023-01-12T04:10:14.551Z,100.00
2023-01-12T04:13:16.473Z,100.00
2023-01-12T04:16:18.984Z,100.00
2023-01-12T04:19:20.878Z,100.00
2023-01-12T04:22:28.832Z,100.00
2023-01-12T04:25:31.446Z,100.00
2023-01-12T04:28:33.365Z,100.00
2023-01-12T04:31:37.584Z,100.00
2023-01-12T04:34:39.935Z,100.00
2023-01-12T04:37:45.937Z,100.00
2023-01-12T04:40:53.724Z,100.00
2023-01-12T04:43:55.639Z,100.00
2023-01-12T04:46:57.880Z,100.00
2023-01-12T04:50:01.785Z,100.00
2023-01-12T04:53:06.719Z,100.00
2023-01-12T04:56:10.279Z,100.00
2023-01-12T04:59:12.160Z,100.00
2023-01-12T05:02:15.607Z,100.00
2023-01-12T05:05:17.633Z,100.00
2023-01-12T05:08:23.267Z,100.00
2023-01-12T05:11:28.010Z,100.00
2023-01-12T05:14:29.769Z,100.00
2023-01-12T05:17:32.698Z,100.00
2023-01-12T05:20:34.726Z,100.00
2023-01-12T05:23:37.955Z,100.00
2023-01-12T05:26:40.263Z,100.00
2023-01-12T05:29:42.091Z,100.00
2023-01-12T05:32:47.159Z,100.00
2023-01-12T05:35:49.008Z,100.00
2023-01-12T05:38:52.258Z,100.00
2023-01-12T05:41:57.101Z,100.00
2023-01-12T05:44:58.936Z,100.00
2023-01-12T05:48:03.400Z,100.00
2023-01-12T05:51:09.871Z,100.00
2023-01-12T05:54:14.327Z,100.00
2023-01-12T05:57:16.670Z,100.00
2023-01-12T06:00:19.616Z,100.00
2023-01-12T06:03:22.073Z,100.00
2023-01-12T06:06:25.315Z,100.00
2023-01-12T06:09:30.129Z,100.00
2023-01-12T06:12:33.142Z,100.00
2023-01-12T06:15:35.797Z,100.00
2023-01-12T06:18:39.095Z,100.00
2023-01-12T06:21:41.603Z,100.00
2023-01-12T06:24:44.932Z,100.00
2023-01-12T06:27:47.187Z,100.00
2023-01-12T06:31:01.122Z,100.00
2023-01-12T06:34:02.994Z,100.00
2023-01-12T06:37:05.801Z,100.00
2023-01-12T06:40:10.435Z,100.00
2023-01-12T06:43:12.224Z,100.00
2023-01-12T06:46:17.938Z,100.00
2023-01-12T06:49:20.187Z,100.00
2023-01-12T06:52:26.057Z,100.00
2023-01-12T06:55:30.737Z,100.00
2023-01-12T06:58:33.558Z,100.00
2023-01-12T07:01:38.573Z,100.00
2023-01-12T07:04:41.009Z,100.00
2023-01-12T07:07:46.288Z,100.00
2023-01-12T07:10:49.500Z,100.00
2023-01-12T07:13:51.479Z,100.00
2023-01-12T07:16:54.949Z,100.00
2023-01-12T07:19:57.956Z,100.00
2023-01-12T07:23:00.092Z,100.00
2023-01-12T07:26:04.121Z,100.00
2023-01-12T07:29:08.513Z,100.00
2023-01-12T07:32:10.276Z,100.00
2023-01-12T07:35:12.321Z,100.00
2023-01-12T07:38:14.422Z,100.00
2023-01-12T07:41:21.393Z,100.00
2023-01-12T07:44:23.192Z,100.00
2023-01-12T07:47:25.242Z,100.00
2023-01-12T07:50:28.479Z,100.00
2023-01-12T07:53:34.694Z,100.00
2023-01-12T07:56:38.069Z,100.00
2023-01-12T07:59:40.254Z,100.00
2023-01-12T08:02:43.574Z,100.00
2023-01-12T08:05:45.498Z,100.00
2023-01-12T08:08:51.232Z,100.00
2023-01-12T08:11:54.478Z,100.00
2023-01-12T08:14:56.372Z,100.00
2023-01-12T08:18:07.628Z,100.00
2023-01-12T08:21:16.283Z,100.00
2023-01-12T08:24:23.835Z,100.00
2023-01-12T08:27:33.518Z,100.00
2023-01-12T08:30:35.970Z,100.00
2023-01-12T08:33:39.327Z,100.00
2023-01-12T08:36:44.393Z,100.00
2023-01-12T08:39:48.788Z,100.00
2023-01-12T08:42:52.162Z,100.00
2023-01-12T08:45:53.944Z,100.00
2023-01-12T08:48:56.938Z,100.00
2023-01-12T08:51:58.970Z,100.00
2023-01-12T08:55:03.470Z,100.00
2023-01-12T08:58:06.771Z,100.00
2023-01-12T09:01:10.730Z,100.00
2023-01-12T09:04:12.679Z,100.00
2023-01-12T09:07:14.735Z,100.00
2023-01-12T09:10:18.673Z,100.00
2023-01-12T09:13:23.309Z,100.00
2023-01-12T09:16:26.285Z,100.00
2023-01-12T09:19:33.489Z,100.00
2023-01-12T09:22:35.575Z,100.00
2023-01-12T09:25:37.395Z,100.00
2023-01-12T09:28:42.516Z,100.00
2023-01-12T09:31:45.714Z,100.00
2023-01-12T09:34:49.054Z,100.00
2023-01-12T09:37:50.916Z,100.00
2023-01-12T09:40:54.802Z,100.00
2023-01-12T09:43:58.655Z,100.00
2023-01-12T09:47:02.950Z,100.00
2023-01-12T09:50:10.810Z,100.00
2023-01-12T09:53:19.037Z,100.00
2023-01-12T09:56:28.415Z,100.00
2023-01-12T09:59:45.347Z,100.00
2023-01-12T10:02:54.842Z,100.00
2023-01-12T10:06:01.562Z,100.00
2023-01-12T10:09:05.711Z,100.00
2023-01-12T10:12:19.997Z,100.00
2023-01-12T10:15:32.293Z,100.00
2023-01-12T10:18:42.359Z,100.00
2023-01-12T10:21:44.487Z,100.00
2023-01-12T10:24:54.381Z,100.00
2023-01-12T10:27:59.945Z,100.00
2023-01-12T10:31:15.820Z,100.00
2023-01-12T10:34:18.123Z,100.00
2023-01-12T10:37:20.122Z,100.00
2023-01-12T10:40:27.386Z,100.00
2023-01-12T10:43:29.250Z,100.00
2023-01-12T10:46:38.177Z,100.00
2023-01-12T10:49:40.004Z,100.00
2023-01-12T10:52:42.201Z,100.00
2023-01-12T10:55:48.282Z,100.00
2023-01-12T10:58:56.178Z,100.00
2023-01-12T11:02:16.877Z,100.00
2023-01-12T11:05:28.644Z,100.00
2023-01-12T11:08:30.471Z,100.00
2023-01-12T11:11:33.539Z,100.00
2023-01-12T11:14:37.349Z,100.00
2023-01-12T11:18:20.260Z,100.00
2023-01-12T11:21:30.125Z,100.00
2023-01-12T11:24:40.459Z,100.00
2023-01-12T11:27:47.498Z,100.00
2023-01-12T11:30:58.280Z,100.00
2023-01-12T11:34:03.639Z,100.00
2023-01-12T11:37:12.329Z,100.00
2023-01-12T11:40:25.443Z,100.00
2023-01-12T11:43:34.720Z,100.00
2023-01-12T11:46:39.856Z,100.00
2023-01-12T11:49:52.208Z,100.00
2023-01-12T11:52:59.084Z,100.00
2023-01-12T11:56:14.921Z,100.00
2023-01-12T11:59:28.619Z,100.00
2023-01-12T12:02:37.643Z,100.00
2023-01-12T12:05:49.332Z,100.00
2023-01-12T12:09:02.061Z,100.00
2023-01-12T12:12:17.151Z,100.00
2023-01-12T12:15:28.403Z,100.00
2023-01-12T12:18:44.127Z,100.00
2023-01-12T12:21:57.841Z,100.00
2023-01-12T12:25:09.717Z,100.00
2023-01-12T12:28:35.326Z,100.00
2023-01-12T12:31:55.312Z,100.00
2023-01-12T12:35:13.723Z,100.00
2023-01-12T12:38:29.433Z,100.00
2023-01-12T12:41:46.455Z,100.00
2023-01-12T12:44:55.866Z,100.00
2023-01-12T12:48:03.592Z,100.00
2023-01-12T12:51:08.179Z,100.00
2023-01-12T12:54:16.616Z,100.00
2023-01-12T12:57:19.665Z,100.00
2023-01-12T13:00:34.046Z,100.00
2023-01-12T13:03:46.315Z,100.00
2023-01-12T13:06:49.912Z,100.00
2023-01-12T13:10:16.806Z,100.00
2023-01-12T13:13:31.264Z,100.00
2023-01-12T13:16:52.591Z,100.00
2023-01-12T13:20:30.973Z,100.00
2023-01-12T13:23:50.478Z,100.00
2023-01-12T13:26:53.861Z,100.00
2023-01-12T13:30:26.944Z,100.00
2023-01-12T13:33:29.468Z,100.00
2023-01-12T13:36:34.294Z,100.00
2023-01-12T13:39:40.748Z,100.00
2023-01-12T13:42:44.557Z,100.00
2023-01-12T13:45:55.059Z,100.00
2023-01-12T13:48:58.505Z,100.00
2023-01-12T13:55:21.838Z,100.00
2023-01-12T13:58:25.337Z,100.00
2023-01-12T14:01:32.709Z,95.62
2023-01-12T14:04:52.934Z,94.38
2023-01-12T14:08:09.744Z,94.43
2023-01-12T14:11:30.840Z,89.16
2023-01-12T14:14:49.386Z,89.06
2023-01-12T14:17:51.340Z,87.14
2023-01-12T14:20:55.004Z,85.40
2023-01-12T14:24:15.206Z,87.80
2023-01-12T14:27:21.874Z,85.96
2023-01-12T14:30:27.088Z,87.11
2023-01-12T14:33:32.261Z,88.54
2023-01-12T14:36:37.319Z,89.88
2023-01-12T14:39:39.598Z,91.52
2023-01-12T14:42:47.254Z,89.74
2023-01-12T14:45:58.395Z,94.92
2023-01-12T14:49:01.902Z,98.21
2023-01-12T14:52:23.605Z,95.40
2023-01-12T14:55:36.749Z,93.37
2023-01-12T14:58:38.633Z,92.94
2023-01-12T15:01:43.043Z,93.94
2023-01-12T15:04:55.372Z,95.45
2023-01-12T15:07:59.495Z,93.72
2023-01-12T15:11:07.391Z,92.22
2023-01-12T15:14:21.794Z,92.37
2023-01-12T15:17:25.387Z,91.42
2023-01-12T15:20:27.819Z,94.87
2023-01-12T15:23:32.957Z,94.69
2023-01-12T15:26:35.087Z,95.54
2023-01-12T15:29:37.132Z,97.77
2023-01-12T15:32:47.746Z,99.47
2023-01-12T15:35:50.422Z,100.00
2023-01-12T15:38:52.571Z,100.00
2023-01-12T15:41:56.322Z,100.00
2023-01-12T15:44:58.125Z,100.00
2023-01-12T15:48:01.761Z,100.00
2023-01-12T15:51:03.809Z,100.00
2023-01-12T15:54:06.132Z,100.00
2023-01-12T15:57:12.383Z,100.00
2023-01-12T16:00:16.951Z,100.00
2023-01-12T16:03:54.669Z,100.00
2023-01-12T16:06:41.869Z,100.00
2023-01-12T16:09:43.650Z,100.00
2023-01-12T16:12:46.248Z,100.00
2023-01-12T16:15:48.019Z,100.00
2023-01-12T16:18:51.253Z,100.00
2023-01-12T16:21:53.014Z,100.00
2023-01-12T16:24:56.186Z,100.00
2023-01-12T16:27:58.131Z,100.00
2023-01-12T16:31:00.046Z,100.00
2023-01-12T16:34:03.835Z,100.00
2023-01-12T16:37:06.026Z,100.00
2023-01-12T16:40:09.178Z,100.00
2023-01-12T16:43:11.471Z,100.00
2023-01-12T16:46:14.270Z,100.00
2023-01-12T16:49:17.572Z,100.00
2023-01-12T16:52:22.137Z,100.00
2023-01-12T16:55:23.992Z,100.00
2023-01-12T16:58:25.821Z,100.00
2023-01-12T17:01:28.194Z,100.00
2023-01-12T17:04:31.516Z,100.00
2023-01-12T17:07:33.314Z,100.00
2023-01-12T17:10:42.695Z,100.00
2023-01-12T17:13:44.569Z,100.00
2023-01-12T17:16:46.920Z,100.00
2023-01-12T17:19:50.406Z,100.00
2023-01-12T17:22:52.723Z,100.00
2023-01-12T17:25:56.553Z,100.00
2023-01-12T17:28:59.458Z,100.00
2023-01-12T17:32:01.529Z,100.00
2023-01-12T17:35:07.601Z,100.00
2023-01-12T17:38:09.673Z,100.00
2023-01-12T17:41:15.380Z,100.00
2023-01-12T17:44:20.029Z,100.00
2023-01-12T17:47:24.873Z,100.00
2023-01-12T17:50:30.555Z,100.00
2023-01-12T17:53:32.544Z,100.00
2023-01-12T17:56:36.995Z,100.00
2023-01-12T17:59:41.203Z,100.00
2023-01-12T18:02:43.444Z,100.00
2023-01-12T18:05:57.766Z,100.00
2023-01-12T18:09:05.328Z,100.00
2023-01-12T18:12:07.322Z,100.00
2023-01-12T18:15:11.060Z,100.00
2023-01-12T18:18:15.311Z,100.00
2023-01-12T18:21:20.215Z,100.00
2023-01-12T18:24:23.694Z,100.00
2023-01-12T18:27:25.468Z,100.00
2023-01-12T18:30:29.025Z,100.00
2023-01-12T18:33:31.409Z,100.00
2023-01-12T18:36:37.268Z,100.00
2023-01-12T18:39:39.454Z,100.00
2023-01-12T18:42:42.270Z,100.00
2023-01-12T18:45:45.953Z,100.00
2023-01-12T18:48:49.629Z,100.00
2023-01-12T18:51:53.105Z,100.00
2023-01-12T18:54:55.847Z,100.00
2023-01-12T18:57:57.924Z,100.00
2023-01-12T19:01:02.181Z,100.00
2023-01-12T19:04:05.504Z,100.00
2023-01-12T19:07:09.715Z,100.00
2023-01-12T19:10:12.364Z,100.00
2023-01-12T19:13:14.718Z,100.00
2023-01-12T19:16:16.995Z,100.00
2023-01-12T19:19:19.591Z,100.00
2023-01-12T19:22:26.255Z,100.00
2023-01-12T19:25:29.271Z,100.00
2023-01-12T19:28:31.946Z,100.00
2023-01-12T19:31:34.679Z,100.00
2023-01-12T19:34:38.125Z,100.00
2023-01-12T19:37:47.029Z,100.00
2023-01-12T19:40:50.780Z,100.00
2023-01-12T19:43:53.838Z,100.00
2023-01-12T19:46:55.914Z,100.00
2023-01-12T19:49:58.867Z,100.00
2023-01-12T19:53:05.899Z,100.00
2023-01-12T19:56:10.277Z,100.00
2023-01-12T19:59:12.614Z,100.00
2023-01-12T20:02:15.455Z,100.00
2023-01-12T20:05:20.644Z,100.00
2023-01-12T20:08:25.779Z,100.00
2023-01-12T20:11:28.105Z,100.00
2023-01-12T20:14:32.063Z,100.00
2023-01-12T20:17:35.114Z,100.00
2023-01-12T20:20:40.501Z,100.00
2023-01-12T20:23:43.779Z,100.00
2023-01-12T20:26:46.724Z,100.00
2023-01-12T20:29:49.348Z,100.00
2023-01-12T20:32:52.883Z,100.00
2023-01-12T20:35:57.566Z,100.00
2023-01-12T20:39:03.546Z,100.00
2023-01-12T20:42:06.194Z,100.00
2023-01-12T20:45:11.341Z,100.00
2023-01-12T20:48:13.852Z,100.00
2023-01-12T20:51:16.685Z,100.00
2023-01-12T20:54:21.055Z,100.00
2023-01-12T20:57:24.320Z,100.00
2023-01-12T21:00:26.680Z,100.00
2023-01-12T21:03:29.341Z,100.00
2023-01-12T21:06:32.403Z,100.00
2023-01-12T21:09:35.802Z,100.00
2023-01-12T21:12:38.550Z,100.00
2023-01-12T21:15:41.056Z,100.00
2023-01-12T21:18:43.122Z,100.00
2023-01-12T21:21:45.353Z,100.00
2023-01-12T21:24:51.314Z,100.00
2023-01-12T21:27:54.134Z,100.00
2023-01-12T21:31:02.528Z,100.00
2023-01-12T21:34:04.658Z,100.00
2023-01-12T21:37:06.486Z,100.00
2023-01-12T21:40:11.884Z,100.00
2023-01-12T21:43:13.726Z,100.00
2023-01-12T21:46:16.516Z,100.00
2023-01-12T21:49:18.611Z,100.00
2023-01-12T21:52:20.398Z,100.00
2023-01-12T21:55:24.100Z,100.00
2023-01-12T21:58:27.957Z,100.00
2023-01-12T22:01:29.983Z,100.00
2023-01-12T22:04:31.913Z,100.00
2023-01-12T22:07:33.773Z,100.00
2023-01-12T22:10:37.111Z,100.00
2023-01-12T22:13:39.560Z,100.00
2023-01-12T22:16:41.694Z,100.00
2023-01-12T22:19:43.884Z,100.00
2023-01-12T22:22:45.905Z,100.00
2023-01-12T22:25:50.037Z,100.00
2023-01-12T22:28:52.131Z,100.00
2023-01-12T22:31:54.030Z,100.00
2023-01-12T22:34:56.428Z,100.00
2023-01-12T22:37:58.271Z,100.00
2023-01-12T22:41:06.500Z,100.00
2023-01-12T22:44:10.394Z,100.00
2023-01-12T22:47:15.137Z,100.00
2023-01-12T22:50:17.059Z,100.00
2023-01-12T22:53:19.567Z,100.00
2023-01-12T22:56:23.865Z,100.00
2023-01-12T22:59:25.967Z,100.00
2023-01-12T23:02:30.568Z,100.00
2023-01-12T23:05:34.615Z,100.00
2023-01-12T23:08:36.543Z,100.00
2023-01-12T23:11:40.766Z,100.00
2023-01-12T23:14:45.059Z,100.00
2023-01-12T23:17:47.987Z,100.00
2023-01-12T23:20:50.300Z,100.00
2023-01-12T23:23:55.282Z,100.00
2023-01-12T23:26:59.746Z,100.00
2023-01-12T23:30:02.021Z,100.00
2023-01-12T23:33:05.599Z,100.00
2023-01-12T23:36:09.973Z,100.00
2023-01-12T23:39:12.140Z,100.00
2023-01-12T23:42:16.537Z,100.00
2023-01-12T23:45:18.395Z,100.00
2023-01-12T23:48:21.732Z,100.00
2023-01-12T23:51:26.679Z,100.00
2023-01-12T23:54:29.005Z,100.00
2023-01-12T23:57:34.201Z,100.00
